sensor_id;sensor_type;location;lat;lon;timestamp;P1;durP1;ratioP1;P2;durP2;ratioP2
74630;SDS011;63138;55.082;38.804;2022-09-17T00:01:12;37.85;;;17.00;;
74630;SDS011;63138;55.082;38.804;2022-09-17T00:03:41;35.22;;;17.58;;
74630;SDS011;63138;55.082;38.804;2022-09-17T00:06:09;32.35;;;15.20;;
74630;SDS011;63138;55.082;38.804;2022-09-17T00:08:37;30.73;;;14.98;;
74630;SDS011;63138;55.082;38.804;2022-09-17T00:11:20;21.17;;;11.93;;
74630;SDS011;63138;55.082;38.804;2022-09-17T00:13:46;20.73;;;11.43;;
74630;SDS011;63138;55.082;38.804;2022-09-17T00:16:19;24.70;;;12.90;;
74630;SDS011;63138;55.082;38.804;2022-09-17T00:18:50;24.92;;;12.35;;
74630;SDS011;63138;55.082;38.804;2022-09-17T00:21:17;18.45;;;10.75;;
74630;SDS011;63138;55.082;38.804;2022-09-17T00:23:44;22.67;;;11.47;;
74630;SDS011;63138;55.082;38.804;2022-09-17T00:26:10;18.67;;;11.00;;
74630;SDS011;63138;55.082;38.804;2022-09-17T00:28:36;18.05;;;10.50;;
74630;SDS011;63138;55.082;38.804;2022-09-17T00:31:06;18.02;;;11.02;;
74630;SDS011;63138;55.082;38.804;2022-09-17T00:33:33;23.40;;;11.95;;
74630;SDS011;63138;55.082;38.804;2022-09-17T00:35:59;15.43;;;9.97;;
74630;SDS011;63138;55.082;38.804;2022-09-17T00:38:26;22.10;;;10.93;;
74630;SDS011;63138;55.082;38.804;2022-09-17T00:40:52;15.90;;;10.45;;
74630;SDS011;63138;55.082;38.804;2022-09-17T00:43:38;19.40;;;10.18;;
74630;SDS011;63138;55.082;38.804;2022-09-17T00:46:46;14.32;;;7.88;;
74630;SDS011;63138;55.082;38.804;2022-09-17T00:49:10;14.67;;;9.47;;
74630;SDS011;63138;55.082;38.804;2022-09-17T00:51:43;14.63;;;8.70;;
74630;SDS011;63138;55.082;38.804;2022-09-17T00:54:14;17.05;;;10.40;;
74630;SDS011;63138;55.082;38.804;2022-09-17T00:56:40;14.63;;;9.90;;
74630;SDS011;63138;55.082;38.804;2022-09-17T00:59:07;17.58;;;10.07;;
74630;SDS011;63138;55.082;38.804;2022-09-17T01:01:35;18.27;;;10.80;;
74630;SDS011;63138;55.082;38.804;2022-09-17T01:04:01;17.42;;;10.88;;
74630;SDS011;63138;55.082;38.804;2022-09-17T01:09:05;12.63;;;8.60;;
74630;SDS011;63138;55.082;38.804;2022-09-17T01:25:23;12.48;;;8.23;;
74630;SDS011;63138;55.082;38.804;2022-09-17T01:28:46;13.80;;;8.77;;
74630;SDS011;63138;55.082;38.804;2022-09-17T01:36:54;15.07;;;9.13;;
74630;SDS011;63138;55.082;38.804;2022-09-17T01:42:15;15.93;;;9.80;;
74630;SDS011;63138;55.082;38.804;2022-09-17T01:44:52;18.80;;;9.65;;
74630;SDS011;63138;55.082;38.804;2022-09-17T01:47:38;18.02;;;10.60;;
74630;SDS011;63138;55.082;38.804;2022-09-17T01:50:16;17.08;;;9.57;;
74630;SDS011;63138;55.082;38.804;2022-09-17T01:52:46;18.17;;;10.03;;
74630;SDS011;63138;55.082;38.804;2022-09-17T01:55:16;20.13;;;10.82;;
74630;SDS011;63138;55.082;38.804;2022-09-17T02:00:37;19.27;;;10.48;;
74630;SDS011;63138;55.082;38.804;2022-09-17T02:05:53;20.03;;;11.23;;
74630;SDS011;63138;55.082;38.804;2022-09-17T02:08:38;28.15;;;11.57;;
74630;SDS011;63138;55.082;38.804;2022-09-17T02:11:11;21.98;;;11.57;;
74630;SDS011;63138;55.082;38.804;2022-09-17T02:16:12;22.15;;;11.75;;
74630;SDS011;63138;55.082;38.804;2022-09-17T02:24:05;20.77;;;9.90;;
74630;SDS011;63138;55.082;38.804;2022-09-17T02:26:38;20.83;;;12.48;;
74630;SDS011;63138;55.082;38.804;2022-09-17T02:29:31;23.40;;;12.68;;
74630;SDS011;63138;55.082;38.804;2022-09-17T02:32:01;22.83;;;13.53;;
74630;SDS011;63138;55.082;38.804;2022-09-17T02:34:27;26.45;;;12.40;;
74630;SDS011;63138;55.082;38.804;2022-09-17T02:36:54;25.17;;;12.85;;
74630;SDS011;63138;55.082;38.804;2022-09-17T02:39:22;26.42;;;11.68;;
74630;SDS011;63138;55.082;38.804;2022-09-17T02:44:45;25.90;;;12.70;;
74630;SDS011;63138;55.082;38.804;2022-09-17T02:53:04;22.77;;;12.02;;
74630;SDS011;63138;55.082;38.804;2022-09-17T02:55:41;22.43;;;11.77;;
74630;SDS011;63138;55.082;38.804;2022-09-17T02:58:28;19.00;;;10.68;;
74630;SDS011;63138;55.082;38.804;2022-09-17T03:01:03;22.33;;;11.82;;
74630;SDS011;63138;55.082;38.804;2022-09-17T03:03:38;21.05;;;12.30;;
74630;SDS011;63138;55.082;38.804;2022-09-17T03:06:06;18.60;;;10.55;;
74630;SDS011;63138;55.082;38.804;2022-09-17T03:08:33;16.87;;;11.63;;
74630;SDS011;63138;55.082;38.804;2022-09-17T03:11:01;21.17;;;11.63;;
74630;SDS011;63138;55.082;38.804;2022-09-17T03:13:28;19.90;;;11.32;;
74630;SDS011;63138;55.082;38.804;2022-09-17T03:15:55;19.47;;;11.03;;
74630;SDS011;63138;55.082;38.804;2022-09-17T03:18:21;22.30;;;12.40;;
74630;SDS011;63138;55.082;38.804;2022-09-17T03:20:48;21.73;;;11.25;;
74630;SDS011;63138;55.082;38.804;2022-09-17T03:23:14;23.58;;;11.15;;
74630;SDS011;63138;55.082;38.804;2022-09-17T03:25:40;17.92;;;11.18;;
74630;SDS011;63138;55.082;38.804;2022-09-17T03:28:09;18.13;;;9.77;;
74630;SDS011;63138;55.082;38.804;2022-09-17T03:30:35;22.00;;;12.20;;
74630;SDS011;63138;55.082;38.804;2022-09-17T03:33:00;22.50;;;11.83;;
74630;SDS011;63138;55.082;38.804;2022-09-17T03:35:26;17.75;;;10.60;;
74630;SDS011;63138;55.082;38.804;2022-09-17T03:37:51;19.30;;;11.53;;
74630;SDS011;63138;55.082;38.804;2022-09-17T03:40:17;23.08;;;11.77;;
74630;SDS011;63138;55.082;38.804;2022-09-17T03:42:44;18.30;;;10.53;;
74630;SDS011;63138;55.082;38.804;2022-09-17T03:45:10;18.95;;;12.05;;
74630;SDS011;63138;55.082;38.804;2022-09-17T03:47:36;18.70;;;11.40;;
74630;SDS011;63138;55.082;38.804;2022-09-17T03:50:03;19.23;;;11.30;;
74630;SDS011;63138;55.082;38.804;2022-09-17T03:52:30;15.02;;;9.73;;
74630;SDS011;63138;55.082;38.804;2022-09-17T03:54:55;16.30;;;10.20;;
74630;SDS011;63138;55.082;38.804;2022-09-17T03:57:21;17.25;;;10.57;;
74630;SDS011;63138;55.082;38.804;2022-09-17T03:59:47;18.63;;;10.23;;
74630;SDS011;63138;55.082;38.804;2022-09-17T04:02:13;16.73;;;11.02;;
74630;SDS011;63138;55.082;38.804;2022-09-17T04:04:39;16.13;;;10.10;;
74630;SDS011;63138;55.082;38.804;2022-09-17T04:07:05;17.83;;;9.60;;
74630;SDS011;63138;55.082;38.804;2022-09-17T04:09:31;15.85;;;9.80;;
74630;SDS011;63138;55.082;38.804;2022-09-17T04:11:57;16.35;;;9.85;;
74630;SDS011;63138;55.082;38.804;2022-09-17T04:14:22;15.53;;;9.40;;
74630;SDS011;63138;55.082;38.804;2022-09-17T04:16:48;15.13;;;9.30;;
74630;SDS011;63138;55.082;38.804;2022-09-17T04:19:14;14.17;;;9.17;;
74630;SDS011;63138;55.082;38.804;2022-09-17T04:21:39;14.38;;;9.98;;
74630;SDS011;63138;55.082;38.804;2022-09-17T04:24:05;13.27;;;8.17;;
74630;SDS011;63138;55.082;38.804;2022-09-17T04:26:31;11.48;;;8.10;;
74630;SDS011;63138;55.082;38.804;2022-09-17T04:28:57;14.20;;;9.30;;
74630;SDS011;63138;55.082;38.804;2022-09-17T04:31:25;12.95;;;9.00;;
74630;SDS011;63138;55.082;38.804;2022-09-17T04:33:51;12.73;;;8.95;;
74630;SDS011;63138;55.082;38.804;2022-09-17T04:36:18;13.93;;;8.40;;
74630;SDS011;63138;55.082;38.804;2022-09-17T04:38:46;11.48;;;8.07;;
74630;SDS011;63138;55.082;38.804;2022-09-17T04:41:13;12.23;;;8.15;;
74630;SDS011;63138;55.082;38.804;2022-09-17T04:43:38;13.53;;;8.50;;
74630;SDS011;63138;55.082;38.804;2022-09-17T04:46:04;12.15;;;8.20;;
74630;SDS011;63138;55.082;38.804;2022-09-17T04:48:30;12.33;;;7.97;;
74630;SDS011;63138;55.082;38.804;2022-09-17T04:50:55;11.57;;;7.80;;
74630;SDS011;63138;55.082;38.804;2022-09-17T04:53:21;12.30;;;8.00;;
74630;SDS011;63138;55.082;38.804;2022-09-17T04:55:47;11.30;;;7.47;;
74630;SDS011;63138;55.082;38.804;2022-09-17T04:58:12;14.90;;;7.87;;
74630;SDS011;63138;55.082;38.804;2022-09-17T05:00:39;11.52;;;6.75;;
74630;SDS011;63138;55.082;38.804;2022-09-17T05:03:06;11.55;;;6.40;;
74630;SDS011;63138;55.082;38.804;2022-09-17T05:05:32;8.80;;;6.25;;
74630;SDS011;63138;55.082;38.804;2022-09-17T05:07:58;10.07;;;6.83;;
74630;SDS011;63138;55.082;38.804;2022-09-17T05:10:24;10.43;;;6.90;;
74630;SDS011;63138;55.082;38.804;2022-09-17T05:12:51;11.18;;;6.75;;
74630;SDS011;63138;55.082;38.804;2022-09-17T05:15:18;11.73;;;7.20;;
74630;SDS011;63138;55.082;38.804;2022-09-17T05:17:45;11.82;;;7.97;;
74630;SDS011;63138;55.082;38.804;2022-09-17T05:20:11;11.23;;;7.18;;
74630;SDS011;63138;55.082;38.804;2022-09-17T05:22:45;9.57;;;6.22;;
74630;SDS011;63138;55.082;38.804;2022-09-17T05:25:12;9.70;;;5.93;;
74630;SDS011;63138;55.082;38.804;2022-09-17T05:27:39;9.00;;;5.47;;
74630;SDS011;63138;55.082;38.804;2022-09-17T05:30:05;8.25;;;5.47;;
74630;SDS011;63138;55.082;38.804;2022-09-17T05:32:32;8.57;;;5.07;;
74630;SDS011;63138;55.082;38.804;2022-09-17T05:34:59;9.45;;;5.90;;
74630;SDS011;63138;55.082;38.804;2022-09-17T05:37:25;6.53;;;4.90;;
74630;SDS011;63138;55.082;38.804;2022-09-17T05:39:53;6.83;;;4.57;;
74630;SDS011;63138;55.082;38.804;2022-09-17T05:42:19;8.30;;;5.28;;
74630;SDS011;63138;55.082;38.804;2022-09-17T05:44:44;6.13;;;4.45;;
74630;SDS011;63138;55.082;38.804;2022-09-17T05:47:10;8.33;;;4.63;;
74630;SDS011;63138;55.082;38.804;2022-09-17T05:49:36;7.32;;;4.63;;
74630;SDS011;63138;55.082;38.804;2022-09-17T05:52:02;6.90;;;4.20;;
74630;SDS011;63138;55.082;38.804;2022-09-17T05:54:28;8.70;;;4.75;;
74630;SDS011;63138;55.082;38.804;2022-09-17T05:56:54;5.45;;;4.50;;
74630;SDS011;63138;55.082;38.804;2022-09-17T05:59:20;6.63;;;4.33;;
74630;SDS011;63138;55.082;38.804;2022-09-17T06:01:46;9.32;;;5.60;;
74630;SDS011;63138;55.082;38.804;2022-09-17T06:04:12;6.50;;;5.20;;
74630;SDS011;63138;55.082;38.804;2022-09-17T06:06:38;6.03;;;4.67;;
74630;SDS011;63138;55.082;38.804;2022-09-17T06:09:06;8.98;;;5.05;;
74630;SDS011;63138;55.082;38.804;2022-09-17T06:11:33;5.75;;;5.15;;
74630;SDS011;63138;55.082;38.804;2022-09-17T06:13:59;7.90;;;5.03;;
74630;SDS011;63138;55.082;38.804;2022-09-17T06:16:24;8.13;;;4.63;;
74630;SDS011;63138;55.082;38.804;2022-09-17T06:18:50;6.50;;;4.57;;
74630;SDS011;63138;55.082;38.804;2022-09-17T06:21:17;5.75;;;4.10;;
74630;SDS011;63138;55.082;38.804;2022-09-17T06:24:01;6.03;;;4.60;;
74630;SDS011;63138;55.082;38.804;2022-09-17T06:26:27;8.00;;;5.38;;
74630;SDS011;63138;55.082;38.804;2022-09-17T06:28:52;9.70;;;4.32;;
74630;SDS011;63138;55.082;38.804;2022-09-17T06:31:18;6.93;;;3.50;;
74630;SDS011;63138;55.082;38.804;2022-09-17T06:33:44;6.28;;;3.83;;
74630;SDS011;63138;55.082;38.804;2022-09-17T06:36:10;5.10;;;4.33;;
74630;SDS011;63138;55.082;38.804;2022-09-17T06:38:38;8.65;;;4.20;;
74630;SDS011;63138;55.082;38.804;2022-09-17T06:41:04;5.43;;;4.20;;
74630;SDS011;63138;55.082;38.804;2022-09-17T06:43:30;6.88;;;4.15;;
74630;SDS011;63138;55.082;38.804;2022-09-17T06:45:57;4.97;;;4.20;;
74630;SDS011;63138;55.082;38.804;2022-09-17T06:48:27;4.80;;;3.97;;
74630;SDS011;63138;55.082;38.804;2022-09-17T06:50:54;8.40;;;4.80;;
74630;SDS011;63138;55.082;38.804;2022-09-17T06:53:21;9.57;;;3.95;;
74630;SDS011;63138;55.082;38.804;2022-09-17T06:55:47;4.68;;;4.20;;
74630;SDS011;63138;55.082;38.804;2022-09-17T06:58:13;6.07;;;3.87;;
74630;SDS011;63138;55.082;38.804;2022-09-17T07:00:39;5.85;;;3.95;;
74630;SDS011;63138;55.082;38.804;2022-09-17T07:03:05;6.35;;;4.28;;
74630;SDS011;63138;55.082;38.804;2022-09-17T07:05:31;8.23;;;4.10;;
74630;SDS011;63138;55.082;38.804;2022-09-17T07:08:00;7.88;;;4.25;;
74630;SDS011;63138;55.082;38.804;2022-09-17T07:10:27;6.07;;;4.30;;
74630;SDS011;63138;55.082;38.804;2022-09-17T07:12:54;5.00;;;3.77;;
74630;SDS011;63138;55.082;38.804;2022-09-17T07:15:19;7.45;;;3.70;;
74630;SDS011;63138;55.082;38.804;2022-09-17T07:17:46;8.48;;;3.50;;
74630;SDS011;63138;55.082;38.804;2022-09-17T07:20:11;6.03;;;4.10;;
74630;SDS011;63138;55.082;38.804;2022-09-17T07:22:37;6.18;;;3.85;;
74630;SDS011;63138;55.082;38.804;2022-09-17T07:25:03;5.80;;;3.70;;
74630;SDS011;63138;55.082;38.804;2022-09-17T07:27:30;5.13;;;4.10;;
74630;SDS011;63138;55.082;38.804;2022-09-17T07:29:56;7.20;;;3.78;;
74630;SDS011;63138;55.082;38.804;2022-09-17T07:32:22;4.80;;;4.00;;
74630;SDS011;63138;55.082;38.804;2022-09-17T07:34:48;5.57;;;3.85;;
74630;SDS011;63138;55.082;38.804;2022-09-17T07:37:15;6.90;;;3.90;;
74630;SDS011;63138;55.082;38.804;2022-09-17T07:39:41;7.50;;;3.90;;
74630;SDS011;63138;55.082;38.804;2022-09-17T07:42:08;9.55;;;4.40;;
74630;SDS011;63138;55.082;38.804;2022-09-17T07:44:34;5.55;;;3.47;;
74630;SDS011;63138;55.082;38.804;2022-09-17T07:47:00;5.05;;;3.50;;
74630;SDS011;63138;55.082;38.804;2022-09-17T07:49:26;6.53;;;3.90;;
74630;SDS011;63138;55.082;38.804;2022-09-17T07:51:52;6.72;;;3.90;;
74630;SDS011;63138;55.082;38.804;2022-09-17T07:54:19;4.75;;;3.58;;
74630;SDS011;63138;55.082;38.804;2022-09-17T07:56:45;6.97;;;4.03;;
74630;SDS011;63138;55.082;38.804;2022-09-17T07:59:11;5.23;;;3.83;;
74630;SDS011;63138;55.082;38.804;2022-09-17T08:01:37;5.60;;;3.58;;
74630;SDS011;63138;55.082;38.804;2022-09-17T08:04:03;9.65;;;4.07;;
74630;SDS011;63138;55.082;38.804;2022-09-17T08:06:30;7.60;;;3.20;;
74630;SDS011;63138;55.082;38.804;2022-09-17T08:08:57;4.95;;;3.60;;
74630;SDS011;63138;55.082;38.804;2022-09-17T08:11:27;5.55;;;3.88;;
74630;SDS011;63138;55.082;38.804;2022-09-17T08:13:54;5.68;;;3.45;;
74630;SDS011;63138;55.082;38.804;2022-09-17T08:16:21;6.88;;;3.90;;
74630;SDS011;63138;55.082;38.804;2022-09-17T08:18:47;9.13;;;4.00;;
74630;SDS011;63138;55.082;38.804;2022-09-17T08:21:15;7.65;;;4.00;;
74630;SDS011;63138;55.082;38.804;2022-09-17T08:23:43;6.10;;;2.78;;
74630;SDS011;63138;55.082;38.804;2022-09-17T08:26:16;5.60;;;2.67;;
74630;SDS011;63138;55.082;38.804;2022-09-17T08:28:44;9.80;;;3.88;;
74630;SDS011;63138;55.082;38.804;2022-09-17T08:31:15;7.00;;;3.50;;
74630;SDS011;63138;55.082;38.804;2022-09-17T08:33:43;3.95;;;3.00;;
74630;SDS011;63138;55.082;38.804;2022-09-17T08:36:10;5.93;;;3.30;;
74630;SDS011;63138;55.082;38.804;2022-09-17T08:38:38;5.45;;;3.60;;
74630;SDS011;63138;55.082;38.804;2022-09-17T08:46:34;7.72;;;3.60;;
74630;SDS011;63138;55.082;38.804;2022-09-17T08:49:12;5.88;;;3.92;;
74630;SDS011;63138;55.082;38.804;2022-09-17T09:05:20;7.63;;;3.38;;
74630;SDS011;63138;55.082;38.804;2022-09-17T09:07:52;6.38;;;3.13;;
74630;SDS011;63138;55.082;38.804;2022-09-17T09:10:46;4.60;;;3.10;;
74630;SDS011;63138;55.082;38.804;2022-09-17T09:13:20;5.40;;;2.80;;
74630;SDS011;63138;55.082;38.804;2022-09-17T09:16:02;4.03;;;2.60;;
74630;SDS011;63138;55.082;38.804;2022-09-17T09:18:37;4.53;;;3.10;;
74630;SDS011;63138;55.082;38.804;2022-09-17T09:23:53;5.80;;;3.13;;
74630;SDS011;63138;55.082;38.804;2022-09-17T09:31:54;4.97;;;3.22;;
74630;SDS011;63138;55.082;38.804;2022-09-17T09:34:38;6.00;;;2.30;;
74630;SDS011;63138;55.082;38.804;2022-09-17T09:37:27;6.43;;;2.40;;
74630;SDS011;63138;55.082;38.804;2022-09-17T09:40:05;4.43;;;2.22;;
74630;SDS011;63138;55.082;38.804;2022-09-17T09:42:47;4.93;;;1.88;;
74630;SDS011;63138;55.082;38.804;2022-09-17T09:45:16;4.72;;;1.70;;
74630;SDS011;63138;55.082;38.804;2022-09-17T09:56:54;6.72;;;2.83;;
74630;SDS011;63138;55.082;38.804;2022-09-17T09:59:32;3.88;;;2.60;;
74630;SDS011;63138;55.082;38.804;2022-09-17T10:02:00;5.25;;;2.42;;
74630;SDS011;63138;55.082;38.804;2022-09-17T10:04:27;4.03;;;2.50;;
74630;SDS011;63138;55.082;38.804;2022-09-17T10:06:59;6.72;;;2.00;;
74630;SDS011;63138;55.082;38.804;2022-09-17T10:09:30;7.43;;;2.00;;
74630;SDS011;63138;55.082;38.804;2022-09-17T10:12:03;4.15;;;2.50;;
74630;SDS011;63138;55.082;38.804;2022-09-17T10:14:38;8.25;;;2.92;;
74630;SDS011;63138;55.082;38.804;2022-09-17T10:22:32;4.32;;;1.77;;
74630;SDS011;63138;55.082;38.804;2022-09-17T10:25:51;4.55;;;1.70;;
74630;SDS011;63138;55.082;38.804;2022-09-17T10:28:00;9.88;;;1.67;;
74630;SDS011;63138;55.082;38.804;2022-09-17T10:30:30;4.27;;;1.70;;
74630;SDS011;63138;55.082;38.804;2022-09-17T10:35:38;6.57;;;2.08;;
74630;SDS011;63138;55.082;38.804;2022-09-17T10:38:04;6.25;;;2.08;;
74630;SDS011;63138;55.082;38.804;2022-09-17T10:40:30;4.90;;;1.80;;
74630;SDS011;63138;55.082;38.804;2022-09-17T10:45:45;5.53;;;2.63;;
74630;SDS011;63138;55.082;38.804;2022-09-17T10:48:20;4.30;;;2.40;;
74630;SDS011;63138;55.082;38.804;2022-09-17T10:50:53;5.07;;;2.50;;
74630;SDS011;63138;55.082;38.804;2022-09-17T10:53:20;7.23;;;2.87;;
74630;SDS011;63138;55.082;38.804;2022-09-17T11:04:18;6.18;;;1.98;;
74630;SDS011;63138;55.082;38.804;2022-09-17T11:13:05;6.43;;;2.00;;
74630;SDS011;63138;55.082;38.804;2022-09-17T11:21:34;8.23;;;2.97;;
74630;SDS011;63138;55.082;38.804;2022-09-17T11:29:47;5.45;;;2.50;;
74630;SDS011;63138;55.082;38.804;2022-09-17T11:37:24;8.02;;;2.03;;
74630;SDS011;63138;55.082;38.804;2022-09-17T11:39:57;6.00;;;2.10;;
74630;SDS011;63138;55.082;38.804;2022-09-17T11:47:53;3.63;;;1.80;;
74630;SDS011;63138;55.082;38.804;2022-09-17T11:50:47;4.15;;;2.03;;
74630;SDS011;63138;55.082;38.804;2022-09-17T11:53:30;7.43;;;3.00;;
74630;SDS011;63138;55.082;38.804;2022-09-17T11:56:09;8.70;;;3.87;;
74630;SDS011;63138;55.082;38.804;2022-09-17T11:58:57;8.18;;;3.10;;
74630;SDS011;63138;55.082;38.804;2022-09-17T12:05:13;7.07;;;2.20;;
74630;SDS011;63138;55.082;38.804;2022-09-17T12:07:44;6.65;;;3.10;;
74630;SDS011;63138;55.082;38.804;2022-09-17T12:10:24;5.80;;;2.70;;
74630;SDS011;63138;55.082;38.804;2022-09-17T12:15:32;5.60;;;2.20;;
74630;SDS011;63138;55.082;38.804;2022-09-17T12:20:33;6.97;;;2.40;;
74630;SDS011;63138;55.082;38.804;2022-09-17T12:23:02;5.60;;;2.40;;
74630;SDS011;63138;55.082;38.804;2022-09-17T12:25:40;8.13;;;2.67;;
74630;SDS011;63138;55.082;38.804;2022-09-17T12:28:20;5.05;;;2.10;;
74630;SDS011;63138;55.082;38.804;2022-09-17T12:30:58;4.30;;;1.92;;
74630;SDS011;63138;55.082;38.804;2022-09-17T12:33:33;5.53;;;2.60;;
74630;SDS011;63138;55.082;38.804;2022-09-17T12:36:16;5.38;;;2.08;;
74630;SDS011;63138;55.082;38.804;2022-09-17T12:47:39;6.60;;;2.40;;
74630;SDS011;63138;55.082;38.804;2022-09-17T12:53:22;4.93;;;2.67;;
74630;SDS011;63138;55.082;38.804;2022-09-17T13:01:17;4.93;;;2.10;;
74630;SDS011;63138;55.082;38.804;2022-09-17T13:03:58;5.53;;;2.10;;
74630;SDS011;63138;55.082;38.804;2022-09-17T13:12:30;4.78;;;2.20;;
74630;SDS011;63138;55.082;38.804;2022-09-17T13:15:22;3.87;;;2.30;;
74630;SDS011;63138;55.082;38.804;2022-09-17T13:20:28;4.80;;;2.17;;
74630;SDS011;63138;55.082;38.804;2022-09-17T13:22:58;4.97;;;2.35;;
74630;SDS011;63138;55.082;38.804;2022-09-17T13:25:25;5.28;;;1.88;;
74630;SDS011;63138;55.082;38.804;2022-09-17T13:28:02;3.83;;;1.80;;
74630;SDS011;63138;55.082;38.804;2022-09-17T13:34:04;4.00;;;1.58;;
74630;SDS011;63138;55.082;38.804;2022-09-17T13:39:09;7.72;;;1.77;;
74630;SDS011;63138;55.082;38.804;2022-09-17T13:42:18;5.33;;;1.70;;
74630;SDS011;63138;55.082;38.804;2022-09-17T13:45:00;5.32;;;1.60;;
74630;SDS011;63138;55.082;38.804;2022-09-17T13:47:30;4.15;;;1.55;;
74630;SDS011;63138;55.082;38.804;2022-09-17T13:52:41;4.05;;;1.40;;
74630;SDS011;63138;55.082;38.804;2022-09-17T13:57:56;4.72;;;1.83;;
74630;SDS011;63138;55.082;38.804;2022-09-17T14:05:56;4.25;;;1.50;;
74630;SDS011;63138;55.082;38.804;2022-09-17T14:24:26;4.60;;;1.75;;
74630;SDS011;63138;55.082;38.804;2022-09-17T14:27:11;4.85;;;1.98;;
74630;SDS011;63138;55.082;38.804;2022-09-17T14:41:40;4.45;;;1.70;;
74630;SDS011;63138;55.082;38.804;2022-09-17T14:44:11;5.53;;;1.70;;
74630;SDS011;63138;55.082;38.804;2022-09-17T14:49:33;3.90;;;1.73;;
74630;SDS011;63138;55.082;38.804;2022-09-17T14:52:01;4.45;;;1.80;;
74630;SDS011;63138;55.082;38.804;2022-09-17T14:54:44;4.95;;;1.95;;
74630;SDS011;63138;55.082;38.804;2022-09-17T14:57:23;5.20;;;1.65;;
74630;SDS011;63138;55.082;38.804;2022-09-17T14:59:55;4.68;;;2.00;;
74630;SDS011;63138;55.082;38.804;2022-09-17T15:04:51;6.13;;;2.35;;
74630;SDS011;63138;55.082;38.804;2022-09-17T15:07:18;5.40;;;2.22;;
74630;SDS011;63138;55.082;38.804;2022-09-17T15:09:46;4.57;;;2.00;;
74630;SDS011;63138;55.082;38.804;2022-09-17T15:12:16;6.93;;;2.67;;
74630;SDS011;63138;55.082;38.804;2022-09-17T15:14:44;4.93;;;1.70;;
74630;SDS011;63138;55.082;38.804;2022-09-17T15:17:16;5.00;;;2.17;;
74630;SDS011;63138;55.082;38.804;2022-09-17T15:19:47;3.63;;;1.90;;
74630;SDS011;63138;55.082;38.804;2022-09-17T15:22:24;6.60;;;1.95;;
74630;SDS011;63138;55.082;38.804;2022-09-17T15:24:55;7.60;;;1.85;;
74630;SDS011;63138;55.082;38.804;2022-09-17T15:27:28;4.83;;;1.77;;
74630;SDS011;63138;55.082;38.804;2022-09-17T15:30:10;4.65;;;1.42;;
74630;SDS011;63138;55.082;38.804;2022-09-17T15:32:38;3.33;;;1.67;;
74630;SDS011;63138;55.082;38.804;2022-09-17T15:35:15;5.05;;;1.67;;
74630;SDS011;63138;55.082;38.804;2022-09-17T15:37:45;6.43;;;2.00;;
74630;SDS011;63138;55.082;38.804;2022-09-17T15:40:22;5.10;;;1.93;;
74630;SDS011;63138;55.082;38.804;2022-09-17T15:45:39;4.78;;;2.00;;
74630;SDS011;63138;55.082;38.804;2022-09-17T15:48:19;5.20;;;2.00;;
74630;SDS011;63138;55.082;38.804;2022-09-17T15:53:25;6.20;;;2.33;;
74630;SDS011;63138;55.082;38.804;2022-09-17T16:08:53;5.22;;;2.47;;
74630;SDS011;63138;55.082;38.804;2022-09-17T16:11:24;4.20;;;2.20;;
74630;SDS011;63138;55.082;38.804;2022-09-17T16:13:53;5.57;;;1.80;;
74630;SDS011;63138;55.082;38.804;2022-09-17T16:18:56;4.50;;;2.10;;
74630;SDS011;63138;55.082;38.804;2022-09-17T16:21:23;5.68;;;2.63;;
74630;SDS011;63138;55.082;38.804;2022-09-17T16:23:51;7.10;;;3.40;;
74630;SDS011;63138;55.082;38.804;2022-09-17T16:26:28;4.30;;;2.30;;
74630;SDS011;63138;55.082;38.804;2022-09-17T16:29:09;6.93;;;2.58;;
74630;SDS011;63138;55.082;38.804;2022-09-17T16:31:43;4.80;;;2.00;;
74630;SDS011;63138;55.082;38.804;2022-09-17T16:34:10;6.13;;;2.40;;
74630;SDS011;63138;55.082;38.804;2022-09-17T16:36:37;5.35;;;2.70;;
74630;SDS011;63138;55.082;38.804;2022-09-17T16:39:03;4.95;;;2.72;;
74630;SDS011;63138;55.082;38.804;2022-09-17T16:41:30;7.15;;;3.05;;
74630;SDS011;63138;55.082;38.804;2022-09-17T16:43:57;9.53;;;2.73;;
74630;SDS011;63138;55.082;38.804;2022-09-17T16:46:24;7.97;;;2.83;;
74630;SDS011;63138;55.082;38.804;2022-09-17T16:48:51;6.53;;;2.35;;
74630;SDS011;63138;55.082;38.804;2022-09-17T16:51:17;6.10;;;2.78;;
74630;SDS011;63138;55.082;38.804;2022-09-17T16:53:45;5.85;;;2.58;;
74630;SDS011;63138;55.082;38.804;2022-09-17T16:56:12;6.40;;;2.73;;
74630;SDS011;63138;55.082;38.804;2022-09-17T16:58:40;5.22;;;2.22;;
74630;SDS011;63138;55.082;38.804;2022-09-17T17:01:14;4.68;;;2.92;;
74630;SDS011;63138;55.082;38.804;2022-09-17T17:03:41;6.07;;;2.60;;
74630;SDS011;63138;55.082;38.804;2022-09-17T17:06:14;7.32;;;2.55;;
74630;SDS011;63138;55.082;38.804;2022-09-17T17:08:44;5.83;;;2.73;;
74630;SDS011;63138;55.082;38.804;2022-09-17T17:11:10;5.30;;;2.83;;
74630;SDS011;63138;55.082;38.804;2022-09-17T17:13:37;8.10;;;3.40;;
74630;SDS011;63138;55.082;38.804;2022-09-17T17:16:11;5.90;;;3.05;;
74630;SDS011;63138;55.082;38.804;2022-09-17T17:18:43;5.80;;;2.90;;
74630;SDS011;63138;55.082;38.804;2022-09-17T17:21:11;9.70;;;3.37;;
74630;SDS011;63138;55.082;38.804;2022-09-17T17:23:39;8.43;;;2.85;;
74630;SDS011;63138;55.082;38.804;2022-09-17T17:26:12;8.52;;;3.13;;
74630;SDS011;63138;55.082;38.804;2022-09-17T17:28:41;7.55;;;3.67;;
74630;SDS011;63138;55.082;38.804;2022-09-17T17:31:09;11.13;;;3.45;;
74630;SDS011;63138;55.082;38.804;2022-09-17T17:33:36;9.37;;;4.20;;
74630;SDS011;63138;55.082;38.804;2022-09-17T17:36:03;8.90;;;3.28;;
74630;SDS011;63138;55.082;38.804;2022-09-17T17:38:30;6.40;;;2.90;;
74630;SDS011;63138;55.082;38.804;2022-09-17T17:41:15;8.15;;;3.22;;
74630;SDS011;63138;55.082;38.804;2022-09-17T17:43:42;11.32;;;3.30;;
74630;SDS011;63138;55.082;38.804;2022-09-17T17:46:10;6.23;;;2.83;;
74630;SDS011;63138;55.082;38.804;2022-09-17T17:48:37;8.55;;;2.92;;
74630;SDS011;63138;55.082;38.804;2022-09-17T17:51:05;6.22;;;3.35;;
74630;SDS011;63138;55.082;38.804;2022-09-17T17:53:34;7.00;;;3.42;;
74630;SDS011;63138;55.082;38.804;2022-09-17T17:56:04;8.25;;;3.67;;
74630;SDS011;63138;55.082;38.804;2022-09-17T17:58:32;6.90;;;3.27;;
74630;SDS011;63138;55.082;38.804;2022-09-17T18:01:20;7.43;;;3.08;;
74630;SDS011;63138;55.082;38.804;2022-09-17T18:03:54;8.30;;;3.45;;
74630;SDS011;63138;55.082;38.804;2022-09-17T18:06:25;6.45;;;2.65;;
74630;SDS011;63138;55.082;38.804;2022-09-17T18:08:52;9.55;;;3.05;;
74630;SDS011;63138;55.082;38.804;2022-09-17T18:11:20;7.10;;;2.83;;
74630;SDS011;63138;55.082;38.804;2022-09-17T18:13:50;7.18;;;2.97;;
74630;SDS011;63138;55.082;38.804;2022-09-17T18:16:18;6.53;;;3.70;;
74630;SDS011;63138;55.082;38.804;2022-09-17T18:18:46;7.68;;;3.10;;
74630;SDS011;63138;55.082;38.804;2022-09-17T18:21:14;7.10;;;4.07;;
74630;SDS011;63138;55.082;38.804;2022-09-17T18:23:43;6.60;;;3.67;;
74630;SDS011;63138;55.082;38.804;2022-09-17T18:26:13;11.15;;;4.03;;
74630;SDS011;63138;55.082;38.804;2022-09-17T18:28:50;10.93;;;4.40;;
74630;SDS011;63138;55.082;38.804;2022-09-17T18:31:20;11.20;;;4.18;;
74630;SDS011;63138;55.082;38.804;2022-09-17T18:34:03;8.57;;;3.90;;
74630;SDS011;63138;55.082;38.804;2022-09-17T18:36:33;7.10;;;3.40;;
74630;SDS011;63138;55.082;38.804;2022-09-17T18:39:03;10.00;;;4.07;;
74630;SDS011;63138;55.082;38.804;2022-09-17T18:41:32;10.32;;;4.40;;
74630;SDS011;63138;55.082;38.804;2022-09-17T18:44:02;8.45;;;3.72;;